Impacts TAF Board
For situational awareness. Not to be used for flight planning purposes.
IDs:

KBLI - Bellingham Intl, WA, US

Issued at 1135 UTC 07 Jul 2020
Updated at 1345 UTC 07 Jul 2020
Potential Impact None Slight Moderate High
Time1253Z 07/14Z 07/15Z 07/16Z 07/17Z 07/18Z 07/19Z 07/20Z 07/21Z 07/22Z 07/23Z 08/00Z 08/01Z 08/02Z>>
Type OBS PRVL PRVL PRVL PRVL PRVL PRVL PRVL PRVL PRVL PRVL PRVL PRVL PRVL
VIS 10 >6 >6 >6 >6 >6 >6 >6 >6 >6 >6 >6 >6 >6
CIG 46 35 35 35 35 35 35 35 40 40 40 40 40 40
Cover OVC OVC OVC OVC OVC OVC OVC OVC BKN BKN BKN BKN BKN BKN
FltCat VFR VFR VFR VFR VFR VFR VFR VFR VFR VFR VFR VFR VFR VFR
WX -- VCSH VCSH VCSH VCSH VCSH VCSH VCSH -- -- -- -- -- --
WDir 180 190 190 190 190 190 190 190 190 190 190 190 190 190
WSpd 9 8 8 8 8 8 8 8 8 8 8 8 8 8
WGst -- -- -- -- -- -- -- -- -- -- -- -- -- --
Raw TAF
KBLI 071135Z 0712/0812 19008KT P6SM VCSH OVC035
  FM072100 19008KT P6SM BKN040


Raw METAR
KBLI 071253Z AUTO 18009KT 10SM OVC046 14/09 A3001 RMK AO2 SLP169 T01390094
KBLI 071153Z AUTO 19011G16KT 10SM OVC044 14/10 A3000 RMK AO2 SLP165 T01390100 10161 20139 53003
KBLI 071053Z AUTO 19006KT 10SM FEW039 OVC070 14/09 A3000 RMK AO2 SLP163 T01390094

METAR Board
Radar Display
Forecast Discussion
For situational awareness. Not to be used for flight planning purposes.